Time;durP1;ratioP1;P1;durP2;ratioP2;P2;SDS_P1;SDS_P2;PMS_P1;PMS_P2;Temp;Humidity;BMP_temperature;BMP_pressure;BME280_temperature;BME280_humidity;BME280_pressure;Samples;Min_cycle;Max_cycle;Signal;HPM_P1;HPM_P2
2021/11/17 02:26:46;;;;;;;12.10;6.50;;;;;;;6.80;93.09;99817.22;5079961;28;20191;-75
2021/11/17 02:29:30;;;;;;;11.60;6.68;;;;;;;6.59;94.48;99810.03;5095275;28;20283;-74
2021/11/17 02:32:20;;;;;;;11.05;6.45;;;;;;;6.60;94.81;99809.09;5095174;28;20199;-74
2021/11/17 02:35:01;;;;;;;8.50;5.68;;;;;;;6.76;93.48;99807.59;5095124;28;20748;-74
2021/11/17 02:37:40;;;;;;;10.57;6.15;;;;;;;6.67;94.52;99803.47;5095570;28;20196;-74
2021/11/17 02:40:31;;;;;;;9.70;6.50;;;;;;;6.72;94.38;99799.75;5095436;28;20550;-74
2021/11/17 02:43:21;;;;;;;9.63;6.43;;;;;;;6.68;94.08;99799.84;5094751;28;20225;-74
2021/11/17 02:46:09;;;;;;;11.98;6.47;;;;;;;6.71;94.08;99798.84;5094849;28;20185;-74
2021/11/17 02:48:51;;;;;;;7.13;5.18;;;;;;;6.62;93.85;99793.84;5095337;28;20645;-73
2021/11/17 02:52:05;;;;;;;9.27;6.28;;;;;;;6.60;94.65;99798.38;5095171;28;20531;-74
2021/11/17 02:54:57;;;;;;;8.48;6.25;;;;;;;6.51;94.67;99806.75;5032631;28;20247;-75
2021/11/17 02:57:41;;;;;;;9.10;6.55;;;;;;;6.69;93.93;99806.06;5094795;28;20276;-75
2021/11/17 03:00:28;;;;;;;10.23;6.65;;;;;;;6.51;93.88;99806.75;5094947;28;20195;-73
2021/11/17 03:03:19;;;;;;;8.00;5.75;;;;;;;6.65;93.48;99815.16;5094536;28;20185;-72
2021/11/17 03:06:08;;;;;;;7.38;4.90;;;;;;;6.64;91.76;99811.59;5094320;28;20627;-73
2021/11/17 03:08:52;;;;;;;9.00;6.93;;;;;;;6.32;93.21;99802.13;5094569;28;20565;-73
2021/11/17 03:11:32;;;;;;;11.90;5.55;;;;;;;6.29;94.32;99804.91;5094368;28;20203;-74
2021/11/17 03:14:13;;;;;;;6.72;4.90;;;;;;;6.41;93.46;99809.78;5094341;28;20185;-73
2021/11/17 03:16:56;;;;;;;7.38;5.20;;;;;;;6.34;93.68;99804.75;5094581;28;20180;-73
2021/11/17 03:19:38;;;;;;;7.55;4.80;;;;;;;6.48;92.25;99808.63;5094784;28;20184;-74
2021/11/17 03:22:29;;;;;;;8.13;5.20;;;;;;;6.29;93.27;99818.28;5094040;28;20188;-74
2021/11/17 03:25:14;;;;;;;7.07;5.55;;;;;;;6.27;94.69;99812.13;5094516;28;20212;-74
2021/11/17 03:27:53;;;;;;;7.10;4.97;;;;;;;6.19;94.33;99812.38;5094488;28;20184;-74
2021/11/17 03:30:56;;;;;;;6.93;4.85;;;;;;;6.31;94.64;99805.72;5094449;28;20180;-73
2021/11/17 03:33:42;;;;;;;8.57;5.22;;;;;;;6.30;94.92;99808.47;5074047;28;20600;-74
2021/11/17 03:36:28;;;;;;;6.75;5.10;;;;;;;6.45;93.64;99805.22;5074030;28;20557;-73
2021/11/17 03:39:15;;;;;;;10.50;5.15;;;;;;;6.30;93.59;99798.63;5082938;28;20271;-74
2021/11/17 03:41:55;;;;;;;6.95;5.25;;;;;;;6.47;93.16;99798.00;5093645;28;20318;-74
2021/11/17 03:44:44;;;;;;;6.63;4.85;;;;;;;6.47;93.17;99798.00;5094093;28;20189;-73
2021/11/17 03:47:27;;;;;;;7.20;5.10;;;;;;;6.37;93.50;99805.47;5080961;28;20208;-74
2021/11/17 03:50:19;;;;;;;8.38;5.53;;;;;;;6.28;92.68;99808.50;5093308;28;20284;-73
2021/11/17 03:53:01;;;;;;;9.95;5.28;;;;;;;6.29;93.06;99806.69;5094024;28;20289;-73
2021/11/17 03:55:42;;;;;;;9.32;5.30;;;;;;;6.20;93.36;99807.94;5093477;28;20215;-73
2021/11/17 03:58:19;;;;;;;9.32;5.75;;;;;;;6.29;94.04;99806.69;5093604;28;20203;-74
2021/11/17 04:01:09;;;;;;;7.30;5.25;;;;;;;6.39;93.15;99811.66;5093473;28;20299;-74
2021/11/17 04:04:02;;;;;;;8.55;5.68;;;;;;;6.42;92.94;99813.34;5093337;28;20201;-73
2021/11/17 04:06:44;;;;;;;8.82;5.97;;;;;;;6.29;93.12;99804.03;5093687;28;20184;-73
2021/11/17 04:09:27;;;;;;;7.32;5.57;;;;;;;6.32;94.89;99801.25;5093305;28;20189;-74
2021/11/17 04:12:09;;;;;;;7.68;5.30;;;;;;;6.27;94.43;99806.78;5093351;28;20191;-74
2021/11/17 04:14:47;;;;;;;10.13;6.25;;;;;;;6.41;95.01;99812.47;5093578;28;20184;-74
2021/11/17 04:17:27;;;;;;;9.75;5.78;;;;;;;6.57;94.25;99817.25;5093386;28;20189;-74
2021/11/17 04:20:07;;;;;;;8.65;5.32;;;;;;;6.63;93.09;99820.56;5092195;28;20687;-74
2021/11/17 04:23:01;;;;;;;10.10;5.75;;;;;;;6.67;91.66;99821.28;5093199;28;20633;-74
2021/11/17 04:25:49;;;;;;;8.77;6.03;;;;;;;6.38;93.86;99823.28;5089622;28;20196;-73
2021/11/17 04:28:28;;;;;;;9.65;5.93;;;;;;;6.56;93.27;99818.19;5092466;28;20218;-73
2021/11/17 04:31:27;;;;;;;8.43;5.50;;;;;;;6.63;92.09;99817.03;5093085;28;20191;-74
2021/11/17 04:34:08;;;;;;;8.65;5.13;;;;;;;6.65;91.98;99816.03;5092704;28;20200;-74
2021/11/17 04:37:07;;;;;;;9.35;5.18;;;;;;;6.73;91.85;99810.34;5092624;28;20205;-74
2021/11/17 04:39:54;;;;;;;6.35;5.15;;;;;;;6.85;90.96;99809.00;5092668;28;20634;-73
2021/11/17 04:42:42;;;;;;;7.13;5.22;;;;;;;6.55;92.27;99824.44;5092798;28;20259;-73
2021/11/17 04:45:24;;;;;;;8.10;6.13;;;;;;;6.44;92.87;99816.81;5092300;28;20181;-73
2021/11/17 04:48:04;;;;;;;9.23;5.28;;;;;;;6.45;93.67;99816.78;5092597;28;20279;-74
2021/11/17 04:50:58;;;;;;;8.95;6.10;;;;;;;6.50;92.56;99815.72;5089571;28;20189;-74
2021/11/17 04:53:40;;;;;;;6.68;5.22;;;;;;;6.44;92.80;99817.72;5088899;28;20211;-74
2021/11/17 04:56:20;;;;;;;7.32;5.32;;;;;;;6.48;92.95;99822.00;5092649;28;20219;-75
2021/11/17 04:59:02;;;;;;;7.75;5.93;;;;;;;6.38;92.77;99823.28;5092460;28;20207;-72
2021/11/17 05:01:49;;;;;;;8.55;5.60;;;;;;;6.50;92.99;99831.78;5092133;28;20181;-72
2021/11/17 05:04:32;;;;;;;12.57;6.82;;;;;;;6.43;92.47;99831.16;5092664;28;20188;-73
2021/11/17 05:07:10;;;;;;;9.52;6.15;;;;;;;6.36;93.40;99838.53;5092602;28;20627;-73
2021/11/17 05:09:47;;;;;;;9.20;6.07;;;;;;;6.20;94.59;99840.88;5092050;28;20279;-75
2021/11/17 05:12:26;;;;;;;10.68;5.60;;;;;;;6.07;96.52;99839.56;5092115;28;20181;-74
2021/11/17 05:15:02;;;;;;;9.68;6.30;;;;;;;6.41;93.75;99836.53;5092067;28;20275;-74
2021/11/17 05:17:39;;;;;;;8.57;6.03;;;;;;;6.39;94.07;99840.22;5092452;28;20172;-75
2021/11/17 05:20:18;;;;;;;9.52;6.43;;;;;;;6.56;93.15;99837.78;5091668;28;20192;-74
2021/11/17 05:22:59;;;;;;;10.75;5.82;;;;;;;6.52;93.89;99851.31;5092058;28;20191;-75
2021/11/17 05:25:45;;;;;;;9.38;5.72;;;;;;;6.48;93.75;99859.44;5092304;28;20185;-73
2021/11/17 05:28:28;;;;;;;8.18;5.60;;;;;;;6.59;93.66;99853.69;5092147;28;20184;-72
2021/11/17 05:31:16;;;;;;;6.32;5.28;;;;;;;6.48;94.33;99867.47;5092166;28;20541;-74
2021/11/17 05:34:01;;;;;;;7.10;5.18;;;;;;;6.37;95.85;99869.66;5092241;28;20192;-72
2021/11/17 05:36:37;;;;;;;9.50;5.93;;;;;;;6.24;96.75;99868.38;5091697;28;20249;-75
2021/11/17 05:39:25;;;;;;;7.50;4.50;;;;;;;6.19;98.23;99865.84;5091357;28;20188;-74
2021/11/17 05:42:05;;;;;;;7.57;5.38;;;;;;;6.28;99.58;99867.34;5091675;28;20305;-74
2021/11/17 05:44:45;;;;;;;9.40;6.07;;;;;;;6.29;98.79;99873.53;5091576;28;20191;-74
2021/11/17 05:47:25;;;;;;;9.30;5.80;;;;;;;6.34;100.00;99877.81;5091138;28;20188;-74
2021/11/17 05:50:04;;;;;;;10.05;6.07;;;;;;;6.51;99.35;99879.00;5088772;28;20199;-74
2021/11/17 05:52:45;;;;;;;9.65;5.47;;;;;;;6.48;99.20;99880.84;5091636;28;20199;-74
2021/11/17 05:55:36;;;;;;;12.43;5.38;;;;;;;6.59;98.72;99888.50;5091847;28;20291;-74
2021/11/17 05:58:18;;;;;;;10.73;5.75;;;;;;;6.63;98.02;99889.25;5091909;28;20191;-74
2021/11/17 06:01:05;;;;;;;7.70;5.45;;;;;;;6.49;98.57;99895.13;5091676;28;20246;-74
2021/11/17 06:03:43;;;;;;;9.82;6.72;;;;;;;6.47;100.00;99894.31;5094901;28;20184;-74
2021/11/17 06:06:10;;;;;;;12.15;5.97;;;;;;;6.46;100.00;99892.53;5095318;28;20188;-75
2021/11/17 06:08:36;;;;;;;10.38;5.97;;;;;;;6.47;100.00;99897.84;5094845;28;20239;-74
2021/11/17 06:11:05;;;;;;;8.70;5.75;;;;;;;6.44;100.00;99897.97;5095491;28;20189;-74
2021/11/17 06:13:33;;;;;;;7.53;5.32;;;;;;;6.57;100.00;99892.16;5095657;28;20189;-74
2021/11/17 06:16:01;;;;;;;7.70;4.90;;;;;;;6.41;100.00;99887.34;5095437;28;20235;-74
2021/11/17 06:18:32;;;;;;;11.60;5.47;;;;;;;6.42;100.00;99889.13;5095156;28;20192;-75
2021/11/17 06:20:58;;;;;;;6.90;3.95;;;;;;;6.32;100.00;99889.50;5095126;28;20279;-74
2021/11/17 06:23:28;;;;;;;7.60;4.80;;;;;;;6.20;100.00;99894.38;5094818;28;20211;-74
2021/11/17 06:25:57;;;;;;;6.95;4.35;;;;;;;6.04;100.00;99910.06;5094259;28;20181;-75
2021/11/17 06:28:28;;;;;;;8.02;6.00;;;;;;;6.24;100.00;99900.47;5095232;28;20200;-75
2021/11/17 06:30:58;;;;;;;8.02;4.50;;;;;;;6.39;100.00;99902.59;5093644;28;20677;-75
2021/11/17 06:33:24;;;;;;;6.22;4.78;;;;;;;6.43;100.00;99912.25;5095026;28;20938;-74
2021/11/17 06:35:51;;;;;;;6.93;4.70;;;;;;;6.15;100.00;99916.81;5094481;28;20300;-73
2021/11/17 06:38:19;;;;;;;4.97;3.80;;;;;;;6.12;100.00;99917.81;5094757;28;20206;-75
2021/11/17 06:40:49;;;;;;;10.23;5.28;;;;;;;6.30;100.00;99918.97;5094536;28;20876;-73
2021/11/17 06:43:16;;;;;;;6.75;4.80;;;;;;;6.24;100.00;99928.09;5094464;28;20516;-74
2021/11/17 06:45:46;;;;;;;8.20;5.07;;;;;;;6.45;100.00;99918.44;5094637;28;20197;-75
2021/11/17 06:48:14;;;;;;;10.75;5.60;;;;;;;6.50;100.00;99928.97;5094253;28;20189;-74
2021/11/17 06:50:43;;;;;;;6.43;4.75;;;;;;;6.34;100.00;99930.44;5094117;28;20212;-73
2021/11/17 06:53:11;;;;;;;6.53;4.55;;;;;;;6.16;100.00;99937.31;5094439;28;20528;-75
2021/11/17 06:55:37;;;;;;;8.20;5.57;;;;;;;6.24;100.00;99946.81;5078165;28;20213;-74
2021/11/17 06:58:04;;;;;;;8.45;5.00;;;;;;;6.34;100.00;99944.69;5074133;28;20268;-74
2021/11/17 07:00:34;;;;;;;7.80;5.20;;;;;;;6.37;100.00;99951.72;5074070;28;20604;-75
2021/11/17 07:03:02;;;;;;;10.38;5.30;;;;;;;6.37;100.00;99949.91;5073539;28;20307;-74
2021/11/17 07:05:29;;;;;;;9.10;5.70;;;;;;;6.18;100.00;99946.16;5080495;28;20286;-74
2021/11/17 07:07:56;;;;;;;9.63;6.22;;;;;;;6.28;100.00;99963.59;5094916;28;20215;-76
2021/11/17 07:10:26;;;;;;;8.90;5.50;;;;;;;6.29;100.00;99961.81;5094595;28;20257;-75
2021/11/17 07:12:52;;;;;;;9.02;5.85;;;;;;;6.39;100.00;99972.13;5094054;28;20265;-74
2021/11/17 07:15:19;;;;;;;12.23;6.22;;;;;;;6.47;100.00;99967.41;5094338;28;20207;-75
2021/11/17 07:17:46;;;;;;;10.07;5.57;;;;;;;6.54;97.88;99976.09;5094792;28;20268;-75
2021/11/17 07:20:15;;;;;;;9.50;5.75;;;;;;;6.53;95.99;99971.63;5094778;28;20239;-75
2021/11/17 07:22:42;;;;;;;9.75;6.35;;;;;;;6.50;96.52;99976.25;5106195;28;20535;-73
2021/11/17 07:25:12;;;;;;;8.82;6.50;;;;;;;6.45;95.94;99982.63;5096058;28;20646;-73
2021/11/17 07:27:38;;;;;;;9.65;6.40;;;;;;;6.56;95.33;99986.75;5094852;28;20180;-75
2021/11/17 07:30:08;;;;;;;14.25;9.23;;;;;;;6.59;96.45;99986.63;5094731;28;20205;-76
2021/11/17 07:32:34;;;;;;;10.90;7.55;;;;;;;6.74;94.91;99982.50;5094513;28;20185;-73
2021/11/17 07:35:01;;;;;;;8.57;6.32;;;;;;;6.82;93.28;99983.09;5094198;28;20196;-74
2021/11/17 07:37:29;;;;;;;11.48;7.15;;;;;;;6.64;93.61;99976.63;5094326;28;20256;-73
2021/11/17 07:39:56;;;;;;;10.23;6.35;;;;;;;6.47;93.22;99980.78;5094508;28;20521;-74
2021/11/17 07:42:23;;;;;;;10.13;6.70;;;;;;;6.65;94.28;99981.94;5094190;28;20539;-75
2021/11/17 07:44:51;;;;;;;8.68;6.35;;;;;;;6.58;93.47;99988.44;5093894;28;20253;-75
2021/11/17 07:47:19;;;;;;;8.07;6.10;;;;;;;6.53;92.93;99986.81;5093960;28;20231;-74
2021/11/17 07:49:46;;;;;;;6.53;5.70;;;;;;;6.38;94.47;99989.13;5094072;28;20211;-75
2021/11/17 07:52:12;;;;;;;9.57;6.07;;;;;;;6.38;94.80;99983.78;5093936;28;20197;-73
2021/11/17 07:54:40;;;;;;;9.77;6.57;;;;;;;6.46;94.15;99987.03;5093671;28;20196;-75
2021/11/17 07:57:08;;;;;;;10.30;6.10;;;;;;;6.84;92.03;99976.75;5093809;28;20215;-75
2021/11/17 07:59:36;;;;;;;9.30;6.60;;;;;;;6.88;90.57;99981.09;5093960;28;20214;-75
2021/11/17 08:02:07;;;;;;;10.27;6.65;;;;;;;7.06;91.20;99989.38;5093497;28;20195;-75
2021/11/17 08:04:35;;;;;;;9.95;6.90;;;;;;;7.09;89.53;99975.84;5094001;28;20238;-73
2021/11/17 08:07:02;;;;;;;9.82;6.53;;;;;;;7.19;86.85;99979.03;5094140;28;20203;-75
2021/11/17 08:09:30;;;;;;;7.85;6.03;;;;;;;7.27;85.53;99974.28;5091275;28;20197;-75
2021/11/17 08:11:58;;;;;;;10.73;6.95;;;;;;;7.25;85.53;99968.09;5093831;28;20272;-74
2021/11/17 08:14:25;;;;;;;10.52;6.93;;;;;;;7.16;85.68;99974.69;5093200;28;20200;-74
2021/11/17 08:16:51;;;;;;;10.52;6.35;;;;;;;7.28;85.09;99973.34;5093935;28;20662;-75
2021/11/17 08:19:18;;;;;;;6.93;5.40;;;;;;;7.42;82.90;99967.47;5093143;28;20195;-74
2021/11/17 08:21:44;;;;;;;7.90;5.55;;;;;;;7.51;82.46;99972.47;5092988;28;20207;-74
2021/11/17 08:24:11;;;;;;;11.90;6.38;;;;;;;7.65;82.12;99962.06;5092583;28;20202;-74
2021/11/17 08:26:38;;;;;;;10.07;6.50;;;;;;;7.85;81.04;99968.41;5091392;28;20186;-75
2021/11/17 08:29:06;;;;;;;9.82;5.75;;;;;;;7.64;82.14;99971.03;5091246;28;20234;-75
2021/11/17 08:31:32;;;;;;;10.65;7.07;;;;;;;7.21;84.71;99980.75;5092909;28;20205;-76
2021/11/17 08:33:59;;;;;;;11.02;7.38;;;;;;;7.12;85.81;99986.44;5092697;28;20196;-75
2021/11/17 08:36:26;;;;;;;8.50;6.75;;;;;;;7.15;87.36;99983.66;5092956;28;20205;-75
2021/11/17 08:38:53;;;;;;;11.93;6.35;;;;;;;7.19;87.23;99987.97;5092990;28;20573;-75
2021/11/17 08:41:21;;;;;;;12.23;6.80;;;;;;;7.24;87.36;99986.00;5091283;28;20586;-75
2021/11/17 08:43:47;;;;;;;8.63;6.22;;;;;;;7.55;86.02;99986.59;5093350;28;20208;-75
2021/11/17 08:46:21;;;;;;;11.27;6.65;;;;;;;7.65;85.87;99986.16;5093273;28;20199;-74
2021/11/17 08:48:48;;;;;;;8.00;6.18;;;;;;;7.76;84.78;99984.88;5093081;28;20594;-75
2021/11/17 08:51:18;;;;;;;10.80;6.07;;;;;;;7.85;83.85;99992.56;5091940;28;20189;-75
2021/11/17 08:53:47;;;;;;;10.25;6.80;;;;;;;7.90;84.27;99988.72;5080703;28;20201;-73
2021/11/17 08:56:15;;;;;;;10.73;7.50;;;;;;;8.05;83.82;99991.69;5082708;28;20227;-74
2021/11/17 08:58:43;;;;;;;10.45;6.82;;;;;;;8.25;82.55;99994.44;5086406;28;20199;-74
2021/11/17 09:01:10;;;;;;;10.63;7.13;;;;;;;8.19;81.17;99996.53;5087035;28;20195;-73
2021/11/17 09:03:39;;;;;;;10.50;7.15;;;;;;;8.22;81.44;100004.44;5083642;28;20280;-75
2021/11/17 09:06:08;;;;;;;19.20;13.43;;;;;;;8.06;82.18;100015.78;5087107;28;20196;-75
2021/11/17 09:08:35;;;;;;;8.13;5.55;;;;;;;8.15;81.48;100007.34;5081914;28;20548;-73
2021/11/17 09:11:05;;;;;;;10.27;5.80;;;;;;;8.21;81.39;100005.34;5083159;28;20193;-73
2021/11/17 09:13:33;;;;;;;9.73;6.20;;;;;;;8.27;81.08;100007.78;5083214;28;20557;-73
2021/11/17 09:16:01;;;;;;;8.35;5.90;;;;;;;8.40;80.57;100011.72;5084464;28;20183;-74
2021/11/17 09:18:32;;;;;;;7.22;5.32;;;;;;;8.37;79.21;100025.25;5092971;28;20189;-74
2021/11/17 09:21:02;;;;;;;7.15;5.30;;;;;;;8.36;79.58;100020.81;5092996;28;20541;-74
2021/11/17 09:23:29;;;;;;;6.65;5.70;;;;;;;8.41;78.30;100031.38;5093060;28;20638;-75
2021/11/17 09:25:58;;;;;;;8.10;5.40;;;;;;;7.98;80.84;100049.22;5092447;28;20200;-74
2021/11/17 09:28:26;;;;;;;10.45;6.05;;;;;;;7.79;82.35;100051.78;5092627;28;20192;-74
2021/11/17 09:30:53;;;;;;;9.48;5.97;;;;;;;7.69;83.18;100054.81;5092841;28;20968;-75
2021/11/17 09:33:22;;;;;;;12.45;5.70;;;;;;;7.62;84.42;100058.66;5092999;28;20684;-75
2021/11/17 09:35:49;;;;;;;10.20;6.88;;;;;;;7.47;85.21;100061.94;5092490;28;20271;-75
2021/11/17 09:38:17;;;;;;;8.40;6.40;;;;;;;7.46;85.67;100063.75;5095664;28;20553;-74
2021/11/17 09:40:47;;;;;;;10.23;6.13;;;;;;;7.56;84.70;100072.28;5096921;28;20204;-73
2021/11/17 09:43:17;;;;;;;8.95;6.78;;;;;;;7.72;84.70;100073.44;5096161;28;20232;-73
2021/11/17 09:45:47;;;;;;;10.43;6.57;;;;;;;7.85;84.35;100072.97;5096827;28;20185;-73
2021/11/17 09:48:19;;;;;;;8.90;5.15;;;;;;;7.93;83.46;100070.84;5096340;28;20184;-75
2021/11/17 09:50:49;;;;;;;11.05;6.30;;;;;;;7.93;82.73;100073.53;5082411;28;20280;-73
2021/11/17 09:53:23;;;;;;;9.50;6.00;;;;;;;7.92;82.65;100077.16;5079728;28;20639;-73
2021/11/17 09:55:53;;;;;;;9.68;6.13;;;;;;;7.93;81.96;100078.91;5087529;28;20193;-73
2021/11/17 09:58:23;;;;;;;8.82;5.72;;;;;;;8.21;80.82;100077.78;5086758;28;20602;-76
2021/11/17 10:00:57;;;;;;;11.55;6.40;;;;;;;8.14;81.11;100075.38;5084742;28;20493;-75
2021/11/17 10:03:29;;;;;;;11.27;5.85;;;;;;;8.17;80.33;100082.41;5084900;28;20587;-73
2021/11/17 10:15:02;;;;;;;10.88;7.47;;;;;;;8.52;79.86;100075.63;5066959;28;20914;-74
2021/11/17 10:17:40;;;;;;;10.05;6.75;;;;;;;8.54;78.90;100076.41;5063605;28;20294;-73
2021/11/17 10:20:22;;;;;;;12.43;7.57;;;;;;;8.74;78.07;100072.03;5065639;28;20193;-74
2021/11/17 10:22:52;;;;;;;11.40;7.30;;;;;;;8.98;76.58;100070.97;5063055;28;20260;-74
2021/11/17 10:25:23;;;;;;;9.90;7.45;;;;;;;9.06;76.86;100073.28;5065407;28;20650;-75
2021/11/17 10:27:58;;;;;;;13.50;8.20;;;;;;;9.13;75.92;100081.97;5068887;28;20273;-74
2021/11/17 10:30:31;;;;;;;12.35;7.93;;;;;;;8.91;75.87;100082.91;5065092;28;20669;-73
2021/11/17 10:33:09;;;;;;;9.65;6.55;;;;;;;8.37;78.13;100070.88;5070474;28;20206;-74
2021/11/17 10:35:39;;;;;;;8.70;6.65;;;;;;;8.42;78.62;100076.94;5068133;28;20191;-73
2021/11/17 10:38:10;;;;;;;11.68;7.60;;;;;;;8.72;77.81;100079.28;5077774;28;20193;-74
2021/11/17 10:40:48;;;;;;;11.80;7.55;;;;;;;8.45;78.26;100068.75;5067383;28;20207;-74
2021/11/17 10:43:18;;;;;;;12.73;9.30;;;;;;;8.22;79.54;100069.69;5066214;28;20311;-75
2021/11/17 10:45:48;;;;;;;16.70;8.82;;;;;;;8.65;78.90;100062.56;5065203;28;20203;-75
2021/11/17 10:48:21;;;;;;;9.50;6.53;;;;;;;8.94;76.86;100068.47;5069573;28;20211;-75
2021/11/17 10:51:12;;;;;;;8.95;6.78;;;;;;;9.22;75.58;100048.44;5067256;28;20198;-76
2021/11/17 10:53:39;;;;;;;10.32;7.10;;;;;;;9.40;74.16;100053.81;5067232;28;20197;-75
2021/11/17 10:56:09;;;;;;;10.30;7.38;;;;;;;9.05;74.87;100068.00;5066838;28;20295;-75
2021/11/17 10:58:40;;;;;;;12.30;8.20;;;;;;;8.95;75.56;100079.16;5066375;28;20188;-74
2021/11/17 11:01:13;;;;;;;10.30;7.82;;;;;;;8.60;77.06;100083.34;5064724;28;20192;-75
2021/11/17 11:03:43;;;;;;;14.77;8.38;;;;;;;8.32;79.62;100083.59;5065725;28;20669;-75
2021/11/17 11:06:15;;;;;;;9.60;7.35;;;;;;;8.14;80.66;100087.91;5080203;28;20198;-74
2021/11/17 11:08:46;;;;;;;10.57;7.20;;;;;;;8.15;80.53;100085.16;5061109;28;20544;-73
2021/11/17 11:11:14;;;;;;;10.30;7.65;;;;;;;8.01;81.29;100082.16;5064219;28;20185;-74
2021/11/17 11:13:46;;;;;;;11.07;7.40;;;;;;;8.28;80.83;100084.66;5070100;28;20255;-75
2021/11/17 11:16:16;;;;;;;11.55;8.45;;;;;;;8.25;80.84;100082.97;5059982;28;20584;-74
2021/11/17 11:18:48;;;;;;;13.55;8.70;;;;;;;8.23;81.31;100090.22;5066114;28;20204;-73
2021/11/17 11:21:18;;;;;;;18.95;13.80;;;;;;;8.30;81.61;100080.97;5056415;28;20602;-74
2021/11/17 11:24:26;;;;;;;11.05;9.00;;;;;;;8.25;82.17;100080.28;5057120;28;20294;-73
2021/11/17 11:27:17;;;;;;;13.82;8.90;;;;;;;8.43;80.46;100081.34;5016448;28;20203;-73
2021/11/17 11:29:46;;;;;;;11.45;7.97;;;;;;;8.42;80.08;100087.69;5054299;28;20186;-74
2021/11/17 11:32:45;;;;;;;11.52;7.00;;;;;;;8.52;79.27;100086.38;5059495;28;20193;-74
2021/11/17 11:35:26;;;;;;;11.88;8.00;;;;;;;8.64;79.22;100084.06;5049431;28;20286;-75
2021/11/17 11:38:08;;;;;;;12.48;8.10;;;;;;;8.84;78.08;100085.91;5057275;28;20193;-75
2021/11/17 11:41:11;;;;;;;12.80;8.52;;;;;;;9.11;77.20;100083.84;5058550;28;20195;-74
2021/11/17 11:43:42;;;;;;;13.95;7.88;;;;;;;8.93;76.73;100086.41;5063826;28;20194;-75
2021/11/17 11:46:31;;;;;;;11.10;7.00;;;;;;;8.93;77.31;100093.56;5062347;28;20635;-75
2021/11/17 11:49:02;;;;;;;13.70;7.70;;;;;;;8.87;77.29;100089.34;5075029;28;20307;-76
2021/11/17 11:51:52;;;;;;;8.63;6.18;;;;;;;8.70;77.92;100084.69;5069585;28;20494;-76
2021/11/17 11:54:24;;;;;;;12.07;7.32;;;;;;;8.57;79.36;100088.88;5048027;28;20203;-74
2021/11/17 11:56:54;;;;;;;17.33;8.75;;;;;;;8.91;78.01;100096.34;5059824;28;20189;-76
2021/11/17 11:59:27;;;;;;;16.83;8.02;;;;;;;8.95;77.72;100102.44;5045754;28;20283;-73
2021/11/17 12:02:06;;;;;;;14.38;8.05;;;;;;;8.81;78.08;100105.72;5056863;28;20221;-74
2021/11/17 12:04:33;;;;;;;12.57;8.18;;;;;;;8.43;80.41;100099.28;5054485;28;20188;-75
2021/11/17 12:07:04;;;;;;;11.27;7.82;;;;;;;8.13;81.64;100100.44;5040261;28;20277;-75
2021/11/17 12:09:35;;;;;;;11.68;7.45;;;;;;;8.12;82.53;100098.69;5049057;28;20204;-76
2021/11/17 12:12:10;;;;;;;12.63;8.15;;;;;;;8.13;82.43;100100.44;5049270;28;20246;-75
2021/11/17 12:14:45;;;;;;;14.73;8.02;;;;;;;7.89;84.37;100102.28;5054090;28;20492;-75
2021/11/17 12:17:13;;;;;;;13.00;9.50;;;;;;;8.13;83.56;100096.88;5073519;28;20613;-75
2021/11/17 12:19:48;;;;;;;13.30;9.07;;;;;;;8.35;83.34;100094.22;5061665;28;20188;-74
2021/11/17 12:22:18;;;;;;;12.02;8.52;;;;;;;8.46;82.14;100092.00;5062488;28;20196;-75
2021/11/17 12:24:48;;;;;;;11.40;8.23;;;;;;;8.50;81.82;100100.78;5053909;28;20202;-75
2021/11/17 12:27:17;;;;;;;13.20;8.52;;;;;;;8.63;80.80;100082.34;5053653;28;20194;-75
2021/11/17 12:29:50;;;;;;;12.60;8.60;;;;;;;8.42;81.93;100081.44;5053374;28;20641;-74
2021/11/17 12:32:23;;;;;;;17.20;8.07;;;;;;;8.32;82.65;100080.91;5052426;28;20683;-74
2021/11/17 12:35:00;;;;;;;11.05;8.60;;;;;;;8.36;83.00;100079.84;5050107;28;20284;-75
2021/11/17 12:37:31;;;;;;;10.15;7.63;;;;;;;8.38;82.21;100079.78;5049135;28;20188;-75
2021/11/17 12:40:00;;;;;;;16.23;9.25;;;;;;;8.49;81.92;100089.16;5047958;28;20208;-75
2021/11/17 12:42:30;;;;;;;14.85;8.15;;;;;;;8.64;80.73;100076.03;5045245;28;20654;-74
2021/11/17 12:45:00;;;;;;;14.15;8.70;;;;;;;8.72;80.82;100084.63;5044671;28;20661;-75
2021/11/17 12:47:31;;;;;;;11.68;7.97;;;;;;;8.53;81.19;100085.44;5040358;28;20200;-75
2021/11/17 12:50:05;;;;;;;12.50;7.85;;;;;;;8.34;82.49;100068.28;5048910;28;20207;-74
2021/11/17 12:52:37;;;;;;;13.30;8.20;;;;;;;8.74;80.79;100070.22;5045012;28;20206;-75
2021/11/17 12:55:11;;;;;;;11.38;8.20;;;;;;;8.89;79.68;100071.38;5046697;28;20612;-75
2021/11/17 12:57:42;;;;;;;11.00;8.13;;;;;;;8.83;79.74;100077.00;5043191;28;20195;-76
2021/11/17 13:00:42;;;;;;;15.18;9.52;;;;;;;8.96;79.01;100080.91;5041474;28;20199;-76
2021/11/17 13:03:29;;;;;;;12.38;8.57;;;;;;;8.91;79.25;100080.22;5042821;28;20197;-75
2021/11/17 13:06:16;;;;;;;11.70;7.68;;;;;;;9.12;78.53;100080.22;5050908;28;20191;-74
2021/11/17 13:08:43;;;;;;;12.65;8.80;;;;;;;9.34;77.35;100077.44;5045898;28;20315;-75
2021/11/17 13:11:18;;;;;;;13.98;9.30;;;;;;;9.09;77.41;100077.66;5039658;28;20200;-76
2021/11/17 13:13:50;;;;;;;12.23;8.88;;;;;;;8.69;79.80;100074.03;5039870;28;20206;-76
2021/11/17 13:16:23;;;;;;;15.70;9.32;;;;;;;8.97;78.79;100077.25;5047947;28;20191;-75
2021/11/17 13:18:59;;;;;;;14.65;9.65;;;;;;;9.02;78.73;100070.81;5044081;28;20195;-75
2021/11/17 13:21:33;;;;;;;15.13;10.60;;;;;;;9.34;77.42;100072.06;5044909;28;20192;-75
2021/11/17 13:24:31;;;;;;;15.60;11.30;;;;;;;9.43;76.90;100068.97;5041305;28;20651;-75
2021/11/17 13:27:34;;;;;;;14.43;10.30;;;;;;;9.03;78.32;100067.22;5041105;28;20191;-73
2021/11/17 13:30:15;;;;;;;15.57;10.13;;;;;;;8.98;78.82;100062.91;5056043;28;20292;-75
2021/11/17 13:32:45;;;;;;;15.32;9.85;;;;;;;9.02;78.75;100063.63;5045296;28;20192;-75
2021/11/17 13:35:29;;;;;;;15.38;9.70;;;;;;;9.13;78.26;100071.22;5039958;28;20303;-75
2021/11/17 13:38:13;;;;;;;12.70;9.55;;;;;;;9.13;77.72;100069.38;5040240;28;20205;-75
2021/11/17 13:40:41;;;;;;;13.00;8.70;;;;;;;9.00;78.93;100076.28;5044375;28;20195;-75
2021/11/17 13:43:10;;;;;;;9.75;7.72;;;;;;;9.19;77.66;100061.06;5068609;28;20200;-74
2021/11/17 13:45:38;;;;;;;11.57;8.55;;;;;;;9.17;78.11;100067.44;5070150;28;20604;-75
2021/11/17 13:48:08;;;;;;;12.15;8.25;;;;;;;9.29;77.72;100061.50;5059433;28;20275;-75
2021/11/17 13:50:37;;;;;;;12.02;8.00;;;;;;;9.44;76.73;100064.47;5043652;28;20196;-75
2021/11/17 13:53:06;;;;;;;12.35;7.97;;;;;;;9.19;77.45;100065.56;5043353;28;20279;-75
2021/11/17 13:55:39;;;;;;;12.18;8.45;;;;;;;9.15;78.42;100063.97;5045636;28;20210;-75
2021/11/17 13:58:07;;;;;;;16.00;9.05;;;;;;;9.51;76.52;100056.03;5045289;28;20262;-75
2021/11/17 14:00:35;;;;;;;11.02;7.63;;;;;;;9.68;76.04;100055.25;5047664;28;20191;-74
2021/11/17 14:03:01;;;;;;;12.68;9.00;;;;;;;9.71;75.40;100067.69;5049453;28;20208;-75
2021/11/17 14:05:29;;;;;;;12.15;7.80;;;;;;;9.63;75.84;100067.16;5034526;28;20229;-75
2021/11/17 14:07:56;;;;;;;10.75;7.47;;;;;;;9.50;76.15;100066.88;5051161;28;20226;-75
2021/11/17 14:10:24;;;;;;;11.63;7.00;;;;;;;9.31;77.14;100070.38;5040348;28;20252;-75
2021/11/17 14:12:52;;;;;;;11.07;7.53;;;;;;;8.97;78.54;100074.56;5044906;28;20189;-75
2021/11/17 14:15:19;;;;;;;10.10;7.50;;;;;;;9.14;78.59;100075.66;5040787;28;20200;-74
2021/11/17 14:17:47;;;;;;;11.00;8.18;;;;;;;8.88;79.58;100074.97;5046379;28;20635;-74
2021/11/17 14:20:15;;;;;;;14.85;8.90;;;;;;;8.83;80.47;100065.38;5041113;28;20185;-75
2021/11/17 14:22:43;;;;;;;14.93;7.75;;;;;;;8.99;80.07;100069.13;5040487;28;20204;-76
2021/11/17 14:25:16;;;;;;;12.15;8.15;;;;;;;9.10;79.43;100076.72;5049258;28;20188;-75
2021/11/17 14:27:46;;;;;;;11.63;7.50;;;;;;;8.98;79.89;100076.34;5041557;28;21443;-75
2021/11/17 14:30:19;;;;;;;11.30;7.72;;;;;;;9.03;79.75;100073.44;5053370;28;20214;-75
2021/11/17 14:32:49;;;;;;;11.52;7.90;;;;;;;9.06;80.23;100072.44;5046743;28;20188;-73
2021/11/17 14:35:16;;;;;;;14.15;8.50;;;;;;;9.23;79.43;100082.44;5050401;28;20191;-75
2021/11/17 14:37:46;;;;;;;13.38;8.30;;;;;;;9.23;78.85;100079.75;5039392;28;20190;-75
2021/11/17 14:40:14;;;;;;;11.50;7.45;;;;;;;9.15;79.66;100080.94;5054043;28;20287;-75
2021/11/17 14:42:41;;;;;;;13.55;8.95;;;;;;;8.94;80.34;100093.50;5043780;28;20189;-76